Time;durP1;ratioP1;P1;durP2;ratioP2;P2;SDS_P1;SDS_P2;PMS_P1;PMS_P2;Temp;Humidity;BMP_temperature;BMP_pressure;BME280_temperature;BME280_humidity;BME280_pressure;Samples;Min_cycle;Max_cycle;Signal;HPM_P1;HPM_P2
2023/11/02 00:00:42;;;;;;;2.20;1.20;;;;;;;;;;5026010;28;20419;-62
2023/11/02 00:03:09;;;;;;;2.58;1.20;;;;;;;;;;5017553;28;20555;-62
2023/11/02 00:06:00;;;;;;;2.80;1.05;;;;;;;;;;5023544;28;20411;-60
2023/11/02 00:08:33;;;;;;;4.20;1.30;;;;;;;;;;5024091;28;20411;-62
2023/11/02 00:11:03;;;;;;;3.60;1.17;;;;;;;;;;5022636;28;20756;-61
2023/11/02 00:13:30;;;;;;;1.85;1.08;;;;;;;;;;5025597;28;20463;-62
2023/11/02 00:15:59;;;;;;;4.73;1.10;;;;;;;;;;5021754;28;20474;-62
2023/11/02 00:18:27;;;;;;;4.35;1.35;;;;;;;;;;5024037;28;20435;-62
2023/11/02 00:20:55;;;;;;;2.50;1.13;;;;;;;;;;5023896;28;20438;-62
2023/11/02 00:23:29;;;;;;;3.50;1.23;;;;;;;;;;5021658;28;20445;-62
2023/11/02 00:25:58;;;;;;;3.42;1.33;;;;;;;;;;5022806;28;20407;-62
2023/11/02 00:28:26;;;;;;;3.50;1.25;;;;;;;;;;5024186;28;20410;-62
2023/11/02 00:30:53;;;;;;;3.87;1.50;;;;;;;;;;5022480;28;20424;-62
2023/11/02 00:33:21;;;;;;;5.55;1.40;;;;;;;;;;5022338;28;20432;-63
2023/11/02 00:35:49;;;;;;;4.13;1.38;;;;;;;;;;5020905;28;20448;-63
2023/11/02 00:38:19;;;;;;;2.90;1.40;;;;;;;;;;5020893;28;20423;-62
2023/11/02 00:40:47;;;;;;;2.00;1.10;;;;;;;;;;5021620;28;20413;-59
2023/11/02 00:43:14;;;;;;;3.77;1.67;;;;;;;;;;5024063;28;20413;-61
2023/11/02 00:45:43;;;;;;;3.33;1.10;;;;;;;;;;5022662;28;20416;-62
2023/11/02 00:48:14;;;;;;;2.07;1.30;;;;;;;;;;5020520;28;20539;-61
2023/11/02 00:50:56;;;;;;;3.17;1.33;;;;;;;;;;5024677;28;20403;-60
2023/11/02 00:53:24;;;;;;;5.13;1.50;;;;;;;;;;5015526;28;20434;-63
2023/11/02 00:55:51;;;;;;;5.85;1.30;;;;;;;;;;5023886;28;20771;-62
2023/11/02 00:58:19;;;;;;;8.23;1.90;;;;;;;;;;5023544;28;20418;-60
2023/11/02 01:00:59;;;;;;;2.80;1.17;;;;;;;;;;5022158;28;20412;-62
2023/11/02 01:03:27;;;;;;;2.65;1.45;;;;;;;;;;5021242;28;20465;-62
2023/11/02 01:05:54;;;;;;;2.72;1.30;;;;;;;;;;5019985;28;20419;-62
2023/11/02 01:08:26;;;;;;;5.38;1.63;;;;;;;;;;5023171;28;20498;-63
2023/11/02 01:10:53;;;;;;;3.77;1.50;;;;;;;;;;5021905;28;20413;-63
2023/11/02 01:13:21;;;;;;;2.88;1.48;;;;;;;;;;5022296;28;20426;-63
2023/11/02 01:16:02;;;;;;;6.53;1.83;;;;;;;;;;5023166;28;20446;-62
2023/11/02 01:18:29;;;;;;;3.58;1.70;;;;;;;;;;5020344;28;20426;-60
2023/11/02 01:21:02;;;;;;;4.13;1.40;;;;;;;;;;5020838;28;20504;-63
2023/11/02 01:23:29;;;;;;;4.35;1.70;;;;;;;;;;5022308;28;20470;-60
2023/11/02 01:25:56;;;;;;;4.72;1.52;;;;;;;;;;5023069;28;20876;-63
2023/11/02 01:28:24;;;;;;;2.53;1.50;;;;;;;;;;5020286;28;20480;-63
2023/11/02 01:31:06;;;;;;;3.92;1.70;;;;;;;;;;5021940;28;20415;-62
2023/11/02 01:33:53;;;;;;;3.42;1.40;;;;;;;;;;5019575;28;20433;-63
2023/11/02 01:36:25;;;;;;;4.43;1.70;;;;;;;;;;5019570;28;20504;-63
2023/11/02 01:38:55;;;;;;;3.40;1.63;;;;;;;;;;5020881;28;20415;-62
2023/11/02 01:41:24;;;;;;;3.35;1.70;;;;;;;;;;5017138;28;20910;-63
2023/11/02 01:43:53;;;;;;;3.90;1.40;;;;;;;;;;5021222;28;20417;-63
2023/11/02 01:46:23;;;;;;;5.50;1.70;;;;;;;;;;5022897;28;20461;-61
2023/11/02 01:48:55;;;;;;;4.18;1.70;;;;;;;;;;5021217;28;20419;-61
2023/11/02 01:51:28;;;;;;;3.00;1.33;;;;;;;;;;5020128;28;20413;-63
2023/11/02 01:53:59;;;;;;;3.25;1.63;;;;;;;;;;5021427;28;20423;-63
2023/11/02 01:56:31;;;;;;;4.32;1.70;;;;;;;;;;5022752;28;20419;-63
2023/11/02 01:59:04;;;;;;;3.97;1.80;;;;;;;;;;5021239;28;20421;-62
2023/11/02 02:01:33;;;;;;;6.65;2.20;;;;;;;;;;5019671;28;20405;-62
2023/11/02 02:04:06;;;;;;;3.40;1.57;;;;;;;;;;5021842;28;20904;-62
2023/11/02 02:06:41;;;;;;;3.10;1.50;;;;;;;;;;5021988;28;20473;-61
2023/11/02 02:09:14;;;;;;;3.67;1.95;;;;;;;;;;5020040;28;20783;-63
2023/11/02 02:11:46;;;;;;;4.63;1.80;;;;;;;;;;5022602;28;20491;-59
2023/11/02 02:14:16;;;;;;;3.10;1.70;;;;;;;;;;5021307;28;20478;-61
2023/11/02 02:16:47;;;;;;;4.30;1.80;;;;;;;;;;5019615;28;20423;-61
2023/11/02 02:19:20;;;;;;;3.83;1.67;;;;;;;;;;5021422;28;20825;-63
2023/11/02 02:21:54;;;;;;;6.43;2.08;;;;;;;;;;5022478;28;20886;-63
2023/11/02 02:24:27;;;;;;;7.13;1.83;;;;;;;;;;5021152;28;20463;-61
2023/11/02 02:27:07;;;;;;;6.37;1.50;;;;;;;;;;5019481;28;20480;-60
2023/11/02 02:29:58;;;;;;;4.25;1.70;;;;;;;;;;5019279;28;20480;-62
2023/11/02 02:32:47;;;;;;;4.13;1.80;;;;;;;;;;5021683;28;20476;-61
2023/11/02 02:35:16;;;;;;;3.05;2.00;;;;;;;;;;5020788;28;20468;-62
2023/11/02 02:37:48;;;;;;;7.72;2.15;;;;;;;;;;5020356;28;20471;-61
2023/11/02 02:40:18;;;;;;;3.83;2.17;;;;;;;;;;5018939;28;20416;-61
2023/11/02 02:42:47;;;;;;;3.92;1.85;;;;;;;;;;5020848;28;20457;-63
2023/11/02 02:45:14;;;;;;;4.85;2.10;;;;;;;;;;5021073;28;20426;-63
2023/11/02 02:47:41;;;;;;;3.85;2.58;;;;;;;;;;5026573;28;20423;-63
2023/11/02 02:50:10;;;;;;;4.33;2.00;;;;;;;;;;5024777;28;20878;-63
2023/11/02 02:52:41;;;;;;;4.70;2.03;;;;;;;;;;5025071;28;20526;-63
2023/11/02 02:55:10;;;;;;;4.87;2.20;;;;;;;;;;5016401;28;20414;-63
2023/11/02 02:57:40;;;;;;;3.90;2.00;;;;;;;;;;5019882;28;20405;-63
2023/11/02 03:00:09;;;;;;;8.68;2.58;;;;;;;;;;5021143;28;20411;-62
2023/11/02 03:02:36;;;;;;;2.80;1.60;;;;;;;;;;5019737;28;20503;-61
2023/11/02 03:05:05;;;;;;;3.55;1.95;;;;;;;;;;5025150;28;20414;-62
2023/11/02 03:07:32;;;;;;;5.25;2.30;;;;;;;;;;5019578;28;20740;-63
2023/11/02 03:10:02;;;;;;;3.67;1.77;;;;;;;;;;5020352;28;20438;-62
2023/11/02 03:12:34;;;;;;;4.93;2.28;;;;;;;;;;5021265;28;20489;-63
2023/11/02 03:15:02;;;;;;;4.05;2.00;;;;;;;;;;5019684;28;20488;-61
2023/11/02 03:17:35;;;;;;;5.33;2.07;;;;;;;;;;5019026;28;20420;-61
2023/11/02 03:20:04;;;;;;;5.38;2.30;;;;;;;;;;5016492;28;20420;-63
2023/11/02 03:22:31;;;;;;;5.00;1.92;;;;;;;;;;5022565;28;20474;-62
2023/11/02 03:25:08;;;;;;;6.68;2.28;;;;;;;;;;5018688;28;20905;-61
2023/11/02 03:27:43;;;;;;;4.27;2.37;;;;;;;;;;5024706;28;20462;-62
2023/11/02 03:30:13;;;;;;;5.53;2.53;;;;;;;;;;5020388;28;20420;-63
2023/11/02 03:32:45;;;;;;;5.47;2.38;;;;;;;;;;5018583;28;20911;-61
2023/11/02 03:35:16;;;;;;;5.32;2.20;;;;;;;;;;5017188;28;20415;-60
2023/11/02 03:37:48;;;;;;;4.70;1.85;;;;;;;;;;5020272;28;20489;-62
2023/11/02 03:40:28;;;;;;;4.97;2.25;;;;;;;;;;5018733;28;20440;-62
2023/11/02 03:43:00;;;;;;;7.03;2.00;;;;;;;;;;5018588;28;20419;-61
2023/11/02 03:45:37;;;;;;;5.00;1.90;;;;;;;;;;5020027;28;20411;-63
2023/11/02 03:48:10;;;;;;;7.07;2.20;;;;;;;;;;5014715;28;20409;-60
2023/11/02 03:50:42;;;;;;;4.72;2.22;;;;;;;;;;5019188;28;20412;-60
2023/11/02 03:53:14;;;;;;;5.90;2.00;;;;;;;;;;5020732;28;20988;-63
2023/11/02 03:55:51;;;;;;;8.55;2.38;;;;;;;;;;5020171;28;20469;-61
2023/11/02 03:58:27;;;;;;;5.45;2.28;;;;;;;;;;5016310;28;20415;-62
2023/11/02 04:00:56;;;;;;;4.40;2.03;;;;;;;;;;5018537;28;20425;-60
2023/11/02 04:03:24;;;;;;;6.10;2.40;;;;;;;;;;5020264;28;20411;-61
2023/11/02 04:05:54;;;;;;;3.90;1.70;;;;;;;;;;5020243;28;20417;-61
2023/11/02 04:08:21;;;;;;;5.55;2.17;;;;;;;;;;5014653;28;20412;-63
2023/11/02 04:10:55;;;;;;;5.10;1.90;;;;;;;;;;5020515;28;20419;-62
2023/11/02 04:13:23;;;;;;;4.05;1.85;;;;;;;;;;5024905;28;20841;-62
2023/11/02 04:15:52;;;;;;;3.80;1.80;;;;;;;;;;5024646;28;21026;-63
2023/11/02 04:18:19;;;;;;;4.05;2.20;;;;;;;;;;5024276;28;20494;-63
2023/11/02 04:20:51;;;;;;;4.93;1.90;;;;;;;;;;5021886;28;20412;-62
2023/11/02 04:23:18;;;;;;;6.20;2.60;;;;;;;;;;5022667;28;20446;-62
2023/11/02 04:25:45;;;;;;;4.78;1.95;;;;;;;;;;5024523;28;20414;-61
2023/11/02 04:28:13;;;;;;;7.67;2.00;;;;;;;;;;5019284;28;20998;-63
2023/11/02 04:30:41;;;;;;;5.03;1.63;;;;;;;;;;5018793;28;20899;-60
2023/11/02 04:33:08;;;;;;;3.30;1.77;;;;;;;;;;5021226;28;20487;-60
2023/11/02 04:35:36;;;;;;;4.10;1.58;;;;;;;;;;5026984;28;20422;-63
2023/11/02 04:38:04;;;;;;;3.38;1.90;;;;;;;;;;5020643;28;20414;-61
2023/11/02 04:40:31;;;;;;;3.10;1.70;;;;;;;;;;5024069;28;20414;-63
2023/11/02 04:42:58;;;;;;;5.57;1.83;;;;;;;;;;5022034;28;20417;-62
2023/11/02 04:45:26;;;;;;;3.63;2.00;;;;;;;;;;5022733;28;20414;-62
2023/11/02 04:47:53;;;;;;;3.65;2.10;;;;;;;;;;5024190;28;20491;-63
2023/11/02 04:50:21;;;;;;;5.38;2.25;;;;;;;;;;5021836;28;20417;-62
2023/11/02 04:52:48;;;;;;;3.10;1.70;;;;;;;;;;5022452;28;20499;-61
2023/11/02 04:55:15;;;;;;;2.72;2.00;;;;;;;;;;5023736;28;20500;-62
2023/11/02 04:57:42;;;;;;;4.18;1.83;;;;;;;;;;5021380;28;20969;-62
2023/11/02 05:00:10;;;;;;;2.33;1.60;;;;;;;;;;5022497;28;20473;-61
2023/11/02 05:02:38;;;;;;;2.72;1.48;;;;;;;;;;5023677;28;20407;-62
2023/11/02 05:05:05;;;;;;;5.97;2.42;;;;;;;;;;5018105;28;20753;-62
2023/11/02 05:07:32;;;;;;;8.75;2.30;;;;;;;;;;5021304;28;20843;-62
2023/11/02 05:09:59;;;;;;;5.45;2.70;;;;;;;;;;5020723;28;20428;-62
2023/11/02 05:12:26;;;;;;;4.10;1.85;;;;;;;;;;5023572;28;20419;-62
2023/11/02 05:14:53;;;;;;;4.32;2.28;;;;;;;;;;5022154;28;20479;-62
2023/11/02 05:17:20;;;;;;;5.68;2.53;;;;;;;;;;5020855;28;20566;-62
2023/11/02 05:19:49;;;;;;;4.78;2.28;;;;;;;;;;5017287;28;20419;-62
2023/11/02 05:22:16;;;;;;;5.15;2.40;;;;;;;;;;5021847;28;20418;-60
2023/11/02 05:24:43;;;;;;;3.90;2.22;;;;;;;;;;5022985;28;20833;-60
2023/11/02 05:27:10;;;;;;;5.32;2.40;;;;;;;;;;5023553;28;20411;-62
2023/11/02 05:29:37;;;;;;;6.40;2.63;;;;;;;;;;5021675;28;20872;-61
2023/11/02 05:32:04;;;;;;;3.45;1.83;;;;;;;;;;5020834;28;20405;-61
2023/11/02 05:34:31;;;;;;;6.32;2.38;;;;;;;;;;5023167;28;20505;-61
2023/11/02 05:36:59;;;;;;;5.03;2.35;;;;;;;;;;5020000;28;20419;-62
2023/11/02 05:39:26;;;;;;;6.03;2.80;;;;;;;;;;5022759;28;20441;-61
2023/11/02 05:41:53;;;;;;;3.72;2.33;;;;;;;;;;5020096;28;20803;-62
2023/11/02 05:44:20;;;;;;;3.83;1.90;;;;;;;;;;5022125;28;20403;-60
2023/11/02 05:46:48;;;;;;;4.93;2.67;;;;;;;;;;5022474;28;20445;-60
2023/11/02 05:49:15;;;;;;;4.55;2.28;;;;;;;;;;5019986;28;20421;-62
2023/11/02 05:51:42;;;;;;;8.05;3.20;;;;;;;;;;5021624;28;20419;-63
2023/11/02 05:54:11;;;;;;;3.70;1.85;;;;;;;;;;5022231;28;20454;-62
2023/11/02 05:56:38;;;;;;;3.35;1.45;;;;;;;;;;5019846;28;20424;-63
2023/11/02 05:59:05;;;;;;;3.70;1.30;;;;;;;;;;5021919;28;20496;-62
2023/11/02 06:01:32;;;;;;;3.47;1.67;;;;;;;;;;5021966;28;20411;-62
2023/11/02 06:04:02;;;;;;;4.43;1.50;;;;;;;;;;5019628;28;20409;-62
2023/11/02 06:06:29;;;;;;;4.20;1.45;;;;;;;;;;5020834;28;20423;-62
2023/11/02 06:08:56;;;;;;;3.13;1.65;;;;;;;;;;5021194;28;20939;-62
2023/11/02 06:11:26;;;;;;;4.72;1.30;;;;;;;;;;5023733;28;20408;-62
2023/11/02 06:13:53;;;;;;;2.80;1.20;;;;;;;;;;5021351;28;21000;-62
2023/11/02 06:16:21;;;;;;;4.85;1.98;;;;;;;;;;5022125;28;20469;-62
2023/11/02 06:18:49;;;;;;;3.60;1.60;;;;;;;;;;5022318;28;20509;-62
2023/11/02 06:21:16;;;;;;;3.97;1.60;;;;;;;;;;5021273;28;20408;-62
2023/11/02 06:23:43;;;;;;;5.82;1.70;;;;;;;;;;5019863;28;20409;-62
2023/11/02 06:26:10;;;;;;;3.92;1.90;;;;;;;;;;5022393;28;20407;-63
2023/11/02 06:28:39;;;;;;;2.65;1.48;;;;;;;;;;5020397;28;20467;-63
2023/11/02 06:31:06;;;;;;;3.58;1.50;;;;;;;;;;5020139;28;20439;-63
2023/11/02 06:33:34;;;;;;;2.10;1.40;;;;;;;;;;5023272;28;20411;-63
2023/11/02 06:36:01;;;;;;;4.75;1.50;;;;;;;;;;5021678;28;20500;-63
2023/11/02 06:38:29;;;;;;;2.45;1.48;;;;;;;;;;5018712;28;20416;-63
2023/11/02 06:40:56;;;;;;;1.95;1.50;;;;;;;;;;5028376;28;20506;-63
2023/11/02 06:43:23;;;;;;;4.05;1.50;;;;;;;;;;5018031;28;20412;-62
2023/11/02 06:45:52;;;;;;;1.98;1.40;;;;;;;;;;5019524;28;20405;-62
2023/11/02 06:48:20;;;;;;;2.45;1.60;;;;;;;;;;5017626;28;20498;-61
2023/11/02 06:50:50;;;;;;;5.25;1.90;;;;;;;;;;5017657;28;20475;-63
2023/11/02 06:53:17;;;;;;;3.97;1.23;;;;;;;;;;5026164;28;20434;-62
2023/11/02 06:55:44;;;;;;;3.10;1.30;;;;;;;;;;5023572;28;20913;-63
2023/11/02 06:58:11;;;;;;;3.40;1.60;;;;;;;;;;5020533;28;20925;-60
2023/11/02 07:00:38;;;;;;;3.88;1.38;;;;;;;;;;5019227;28;20439;-61
2023/11/02 07:03:08;;;;;;;3.05;1.30;;;;;;;;;;5022479;28;20420;-62
2023/11/02 07:05:35;;;;;;;3.83;1.47;;;;;;;;;;5025156;28;20819;-60
2023/11/02 07:08:02;;;;;;;4.43;1.30;;;;;;;;;;5018754;28;20411;-62
2023/11/02 07:10:31;;;;;;;3.33;1.50;;;;;;;;;;5019666;28;20483;-63
2023/11/02 07:12:58;;;;;;;2.90;1.38;;;;;;;;;;5019506;28;20937;-63
2023/11/02 07:15:25;;;;;;;4.13;1.60;;;;;;;;;;5016252;28;20915;-62
2023/11/02 07:17:52;;;;;;;1.77;1.13;;;;;;;;;;5020707;28;20474;-59
2023/11/02 07:20:21;;;;;;;3.90;1.95;;;;;;;;;;5018142;28;20854;-63
2023/11/02 07:22:48;;;;;;;3.50;1.95;;;;;;;;;;5020243;28;20469;-62
2023/11/02 07:25:15;;;;;;;2.67;1.90;;;;;;;;;;5019111;28;20409;-63
2023/11/02 07:27:42;;;;;;;3.55;1.90;;;;;;;;;;5018901;28;20793;-63
2023/11/02 07:30:10;;;;;;;2.47;1.80;;;;;;;;;;5018578;28;20463;-62
2023/11/02 07:32:37;;;;;;;3.47;1.77;;;;;;;;;;5018779;28;20416;-61
2023/11/02 07:35:05;;;;;;;3.50;1.70;;;;;;;;;;5019953;28;20486;-63
2023/11/02 07:37:34;;;;;;;5.25;1.90;;;;;;;;;;5018815;28;20836;-63
2023/11/02 07:40:01;;;;;;;4.03;2.20;;;;;;;;;;5020840;28;20414;-63
2023/11/02 07:42:28;;;;;;;2.88;1.33;;;;;;;;;;5020630;28;20414;-61
2023/11/02 07:44:55;;;;;;;2.38;1.80;;;;;;;;;;5018450;28;20408;-63
2023/11/02 07:47:22;;;;;;;3.00;1.90;;;;;;;;;;5023542;28;20406;-63
2023/11/02 07:49:49;;;;;;;3.67;2.05;;;;;;;;;;5024533;28;20445;-60
2023/11/02 07:52:16;;;;;;;6.20;1.75;;;;;;;;;;5023217;28;20416;-62
2023/11/02 07:54:45;;;;;;;2.13;1.33;;;;;;;;;;5024675;28;20485;-62
2023/11/02 07:57:14;;;;;;;43.00;9.30;;;;;;;;;;5024425;28;20422;-62
2023/11/02 07:59:41;;;;;;;89.45;17.25;;;;;;;;;;5022442;28;20416;-62
2023/11/02 08:02:08;;;;;;;22.23;5.97;;;;;;;;;;5023625;28;20829;-62
2023/11/02 08:04:35;;;;;;;4.07;2.03;;;;;;;;;;5023422;28;20529;-62
2023/11/02 08:07:03;;;;;;;2.80;1.90;;;;;;;;;;5024184;28;20420;-62
2023/11/02 08:09:30;;;;;;;2.35;1.70;;;;;;;;;;5021083;28;20428;-60
2023/11/02 08:11:59;;;;;;;3.50;2.03;;;;;;;;;;5023995;28;20455;-62
2023/11/02 08:14:26;;;;;;;25.20;8.90;;;;;;;;;;5021922;28;20847;-60
2023/11/02 08:16:53;;;;;;;2.78;1.77;;;;;;;;;;5023769;28;20498;-63
2023/11/02 08:19:20;;;;;;;5.63;3.13;;;;;;;;;;5023934;28;20423;-63
2023/11/02 08:21:47;;;;;;;3.80;2.33;;;;;;;;;;5021934;28;20421;-62
2023/11/02 08:24:14;;;;;;;2.65;1.73;;;;;;;;;;5024097;28;20414;-61
2023/11/02 08:26:41;;;;;;;2.63;1.83;;;;;;;;;;5023807;28;20480;-60
2023/11/02 08:29:10;;;;;;;2.72;1.75;;;;;;;;;;5021573;28;20447;-62
2023/11/02 08:31:37;;;;;;;4.45;2.10;;;;;;;;;;5023736;28;20429;-63
2023/11/02 08:34:04;;;;;;;4.63;1.80;;;;;;;;;;5023210;28;20450;-63
2023/11/02 08:36:31;;;;;;;4.50;2.67;;;;;;;;;;5019843;28;20955;-63
2023/11/02 08:38:59;;;;;;;4.43;2.55;;;;;;;;;;5023028;28;20950;-60
2023/11/02 08:41:28;;;;;;;5.47;3.22;;;;;;;;;;5023206;28;20885;-63
2023/11/02 08:43:56;;;;;;;5.97;3.50;;;;;;;;;;5020833;28;20417;-61
2023/11/02 08:46:25;;;;;;;4.30;3.30;;;;;;;;;;5015680;28;20487;-63
2023/11/02 08:48:53;;;;;;;6.07;3.60;;;;;;;;;;5018229;28;20425;-63
2023/11/02 08:51:23;;;;;;;4.05;2.45;;;;;;;;;;5017654;28;20776;-63
2023/11/02 08:53:50;;;;;;;4.30;3.20;;;;;;;;;;5022239;28;20905;-65
2023/11/02 08:56:17;;;;;;;5.00;2.95;;;;;;;;;;5028841;28;20429;-61
2023/11/02 08:58:45;;;;;;;4.70;2.60;;;;;;;;;;5014743;28;20418;-64
2023/11/02 09:01:13;;;;;;;4.15;2.88;;;;;;;;;;5022001;28;20440;-63
2023/11/02 09:03:42;;;;;;;3.30;2.55;;;;;;;;;;5024714;28;20407;-63
2023/11/02 09:06:09;;;;;;;3.65;2.50;;;;;;;;;;5024068;28;20482;-68
2023/11/02 09:08:37;;;;;;;3.33;2.43;;;;;;;;;;5021415;28;20944;-62
2023/11/02 09:11:04;;;;;;;4.30;3.00;;;;;;;;;;5023757;28;20473;-64
2023/11/02 09:13:31;;;;;;;4.47;3.20;;;;;;;;;;5020954;28;20474;-65
2023/11/02 09:15:59;;;;;;;4.60;2.83;;;;;;;;;;5021196;28;20504;-64
2023/11/02 09:18:26;;;;;;;5.35;3.45;;;;;;;;;;5022857;28;20415;-66
2023/11/02 09:20:54;;;;;;;4.30;2.78;;;;;;;;;;5020919;28;20412;-65
2023/11/02 09:23:21;;;;;;;4.38;2.72;;;;;;;;;;5021841;28;20415;-65
2023/11/02 09:25:49;;;;;;;2.17;1.80;;;;;;;;;;5024185;28;20490;-66
2023/11/02 09:28:16;;;;;;;3.55;2.20;;;;;;;;;;5023045;28;20415;-65
2023/11/02 09:30:43;;;;;;;2.60;2.20;;;;;;;;;;5022273;28;20421;-63
2023/11/02 09:33:11;;;;;;;4.03;2.38;;;;;;;;;;5019777;28;20461;-63
2023/11/02 09:35:38;;;;;;;4.53;2.80;;;;;;;;;;5022791;28;20441;-63
2023/11/02 09:38:06;;;;;;;3.55;1.92;;;;;;;;;;5018528;28;20403;-63
2023/11/02 09:40:34;;;;;;;3.83;2.38;;;;;;;;;;5022042;28;20414;-62
2023/11/02 09:43:02;;;;;;;3.20;2.22;;;;;;;;;;5016714;28;20415;-63
2023/11/02 09:45:30;;;;;;;3.83;2.57;;;;;;;;;;5013701;28;20467;-63
2023/11/02 09:47:57;;;;;;;4.17;2.43;;;;;;;;;;5015915;28;20423;-62
2023/11/02 09:50:24;;;;;;;3.07;2.07;;;;;;;;;;5017593;28;20483;-62
2023/11/02 09:52:51;;;;;;;3.45;2.28;;;;;;;;;;5020343;28;20470;-60
2023/11/02 09:55:20;;;;;;;5.38;2.42;;;;;;;;;;5024643;28;20435;-63
2023/11/02 09:57:48;;;;;;;3.95;2.63;;;;;;;;;;5025258;28;21289;-60
2023/11/02 10:00:17;;;;;;;3.13;2.17;;;;;;;;;;5021459;28;20545;-60
2023/11/02 10:02:46;;;;;;;3.53;2.30;;;;;;;;;;5019024;28;20452;-61
2023/11/02 10:05:14;;;;;;;3.25;2.30;;;;;;;;;;5021188;28;20475;-58
2023/11/02 10:07:41;;;;;;;6.15;2.78;;;;;;;;;;5020929;28;20427;-60
2023/11/02 10:10:08;;;;;;;3.38;2.30;;;;;;;;;;5018972;28;20492;-61
2023/11/02 10:12:37;;;;;;;4.07;2.67;;;;;;;;;;5020398;28;20461;-61
2023/11/02 10:15:04;;;;;;;3.22;2.22;;;;;;;;;;5021418;28;20461;-62
2023/11/02 10:17:35;;;;;;;3.92;2.42;;;;;;;;;;5014481;28;20417;-61
2023/11/02 10:20:08;;;;;;;4.68;2.72;;;;;;;;;;5019759;28;20489;-61
2023/11/02 10:22:35;;;;;;;4.78;2.80;;;;;;;;;;5021792;28;20501;-59
2023/11/02 10:25:03;;;;;;;4.35;2.50;;;;;;;;;;5017812;28;20415;-59
2023/11/02 10:27:30;;;;;;;4.75;2.55;;;;;;;;;;5020706;28;20477;-67
2023/11/02 10:29:59;;;;;;;3.75;2.30;;;;;;;;;;5018645;28;20463;-60
2023/11/02 10:32:27;;;;;;;4.55;2.75;;;;;;;;;;5020074;28;20415;-64
2023/11/02 10:34:54;;;;;;;8.25;2.42;;;;;;;;;;5018330;28;20409;-61
2023/11/02 10:37:31;;;;;;;3.92;2.78;;;;;;;;;;5021222;28;21169;-61
2023/11/02 10:39:58;;;;;;;4.03;2.20;;;;;;;;;;5018022;28;20444;-60
2023/11/02 10:42:26;;;;;;;5.47;2.72;;;;;;;;;;5014151;28;20408;-61
2023/11/02 10:44:53;;;;;;;7.03;2.30;;;;;;;;;;5019995;28;20563;-60
2023/11/02 10:47:26;;;;;;;4.93;2.40;;;;;;;;;;5020063;28;20900;-61
2023/11/02 10:49:55;;;;;;;4.57;2.23;;;;;;;;;;5016388;28;20824;-59
2023/11/02 10:52:29;;;;;;;4.05;2.42;;;;;;;;;;5018660;28;20409;-59
2023/11/02 10:54:58;;;;;;;3.70;2.10;;;;;;;;;;5015914;28;21026;-61
2023/11/02 10:57:25;;;;;;;5.00;2.20;;;;;;;;;;5019797;28;20516;-60
2023/11/02 10:59:53;;;;;;;4.80;2.35;;;;;;;;;;5022777;28;20445;-62
2023/11/02 11:02:22;;;;;;;4.88;2.17;;;;;;;;;;5022834;28;20458;-61
2023/11/02 11:04:49;;;;;;;5.93;2.60;;;;;;;;;;5024339;28;20452;-61
2023/11/02 11:07:16;;;;;;;4.72;2.20;;;;;;;;;;5019351;28;20516;-61
2023/11/02 11:09:44;;;;;;;3.45;2.50;;;;;;;;;;5020429;28;20445;-61
2023/11/02 11:12:11;;;;;;;5.00;2.47;;;;;;;;;;5020055;28;20414;-61
2023/11/02 11:14:39;;;;;;;4.88;2.58;;;;;;;;;;5018253;28;20416;-58
2023/11/02 11:17:06;;;;;;;7.13;3.10;;;;;;;;;;5019030;28;20472;-58
2023/11/02 11:19:35;;;;;;;6.45;2.63;;;;;;;;;;5020180;28;20418;-58
2023/11/02 11:22:04;;;;;;;6.78;2.78;;;;;;;;;;5020033;28;20495;-62
2023/11/02 11:24:34;;;;;;;5.55;2.83;;;;;;;;;;5017873;28;20862;-58
2023/11/02 11:27:02;;;;;;;6.38;3.03;;;;;;;;;;5017212;28;20460;-59
2023/11/02 11:29:36;;;;;;;5.95;2.85;;;;;;;;;;5020036;28;20467;-61
2023/11/02 11:32:03;;;;;;;6.88;2.63;;;;;;;;;;5020165;28;20456;-61
2023/11/02 11:34:45;;;;;;;7.28;3.10;;;;;;;;;;5014277;28;20533;-60
2023/11/02 11:37:31;;;;;;;8.88;3.00;;;;;;;;;;5016766;28;20504;-59
2023/11/02 11:40:00;;;;;;;4.82;2.42;;;;;;;;;;5020216;28;20453;-60
2023/11/02 11:42:45;;;;;;;6.25;3.78;;;;;;;;;;5017259;28;20960;-60
2023/11/02 11:45:28;;;;;;;7.60;3.92;;;;;;;;;;5018720;28;20488;-64
2023/11/02 11:47:56;;;;;;;5.82;3.13;;;;;;;;;;5016184;28;20422;-62
2023/11/02 11:50:33;;;;;;;6.40;2.92;;;;;;;;;;5020272;28;21016;-62
2023/11/02 11:53:08;;;;;;;16.20;6.57;;;;;;;;;;5015463;28;20458;-61
2023/11/02 11:55:37;;;;;;;7.50;3.10;;;;;;;;;;5020195;28;20920;-61
2023/11/02 11:58:06;;;;;;;7.53;2.72;;;;;;;;;;5026993;28;20459;-60
2023/11/02 12:00:34;;;;;;;7.25;3.17;;;;;;;;;;5014443;28;20450;-63
2023/11/02 12:03:04;;;;;;;5.00;3.03;;;;;;;;;;5021044;28;20885;-63
2023/11/02 12:05:49;;;;;;;9.82;3.53;;;;;;;;;;5017551;28;20420;-63
2023/11/02 12:08:17;;;;;;;6.25;3.08;;;;;;;;;;5018647;28;20415;-62
2023/11/02 12:10:46;;;;;;;7.20;3.72;;;;;;;;;;5021857;28;20487;-62
2023/11/02 12:13:13;;;;;;;6.43;2.80;;;;;;;;;;5018855;28;20417;-61
2023/11/02 12:15:51;;;;;;;8.47;4.10;;;;;;;;;;5020842;28;20496;-60
2023/11/02 12:18:20;;;;;;;6.72;3.95;;;;;;;;;;5017543;28;20408;-61
2023/11/02 12:20:47;;;;;;;8.27;4.03;;;;;;;;;;5018611;28;20425;-60
2023/11/02 12:23:14;;;;;;;11.27;3.13;;;;;;;;;;5020279;28;20777;-60
2023/11/02 12:25:41;;;;;;;6.22;3.15;;;;;;;;;;5017071;28;20420;-60
2023/11/02 12:28:12;;;;;;;8.50;3.30;;;;;;;;;;5018592;28;20446;-61
2023/11/02 12:30:43;;;;;;;8.95;3.55;;;;;;;;;;5019647;28;20889;-60
2023/11/02 12:33:10;;;;;;;6.90;3.35;;;;;;;;;;5018663;28;20482;-61
2023/11/02 12:35:37;;;;;;;9.50;4.10;;;;;;;;;;5023315;28;20943;-69
2023/11/02 12:38:07;;;;;;;7.27;3.33;;;;;;;;;;5021189;28;20410;-70
2023/11/02 12:43:39;;;;;;;8.68;3.70;;;;;;;;;;5000390;28;20396;-69
2023/11/02 12:46:08;;;;;;;7.68;3.45;;;;;;;;;;5021224;28;20415;-69
2023/11/02 12:48:37;;;;;;;9.23;4.60;;;;;;;;;;5023113;28;20467;-69
2023/11/02 12:51:18;;;;;;;9.30;4.55;;;;;;;;;;5021091;28;20419;-70
2023/11/02 12:53:45;;;;;;;8.05;3.78;;;;;;;;;;5020162;28;20907;-61
2023/11/02 12:56:13;;;;;;;9.75;4.00;;;;;;;;;;5016442;28;20432;-61
2023/11/02 12:58:42;;;;;;;7.03;3.85;;;;;;;;;;5021962;28;20423;-61
2023/11/02 13:01:09;;;;;;;9.55;3.85;;;;;;;;;;5009590;28;20419;-61
2023/11/02 13:03:36;;;;;;;7.53;3.97;;;;;;;;;;5022958;28;20479;-62
2023/11/02 13:06:09;;;;;;;8.43;4.20;;;;;;;;;;5021818;28;20492;-61
2023/11/02 13:08:37;;;;;;;7.57;4.35;;;;;;;;;;5018443;28;20420;-60
2023/11/02 13:11:07;;;;;;;9.55;3.55;;;;;;;;;;5016481;28;20894;-60
2023/11/02 13:13:34;;;;;;;6.43;3.88;;;;;;;;;;5026347;28;20697;-61
2023/11/02 13:16:02;;;;;;;6.95;3.30;;;;;;;;;;5022525;28;20415;-61
2023/11/02 13:18:29;;;;;;;8.60;3.60;;;;;;;;;;5023295;28;20413;-61
2023/11/02 13:20:57;;;;;;;17.67;6.78;;;;;;;;;;5023434;28;20418;-61
2023/11/02 13:23:24;;;;;;;14.02;6.57;;;;;;;;;;5021902;28;20413;-61
2023/11/02 13:25:52;;;;;;;13.05;6.97;;;;;;;;;;5021481;28;20920;-61
2023/11/02 13:28:19;;;;;;;10.10;6.40;;;;;;;;;;5024096;28;21101;-61
2023/11/02 13:30:46;;;;;;;9.03;5.13;;;;;;;;;;5024482;28;20495;-61
2023/11/02 13:33:14;;;;;;;11.55;6.00;;;;;;;;;;5022691;28;20445;-61
2023/11/02 13:35:41;;;;;;;13.82;6.75;;;;;;;;;;5020049;28;20412;-61
2023/11/02 13:38:08;;;;;;;11.57;6.18;;;;;;;;;;5021721;28;20476;-61
2023/11/02 13:40:35;;;;;;;13.30;6.30;;;;;;;;;;5022945;28;20415;-61
2023/11/02 13:43:02;;;;;;;11.68;6.38;;;;;;;;;;5020093;28;20478;-61
2023/11/02 13:45:31;;;;;;;11.40;6.93;;;;;;;;;;5021672;28;20494;-61
2023/11/02 13:47:58;;;;;;;18.67;14.23;;;;;;;;;;5023427;28;20422;-61
2023/11/02 13:50:26;;;;;;;19.90;18.13;;;;;;;;;;5020793;28;20429;-61
2023/11/02 13:52:53;;;;;;;21.05;19.15;;;;;;;;;;5021779;28;20473;-61
2023/11/02 13:55:21;;;;;;;19.90;18.00;;;;;;;;;;5022192;28;20786;-60
2023/11/02 13:57:48;;;;;;;22.60;20.23;;;;;;;;;;5019587;28;20425;-61
2023/11/02 14:00:15;;;;;;;24.27;22.17;;;;;;;;;;5022030;28;20445;-60
2023/11/02 14:02:42;;;;;;;17.70;16.10;;;;;;;;;;5021702;28;20853;-60
2023/11/02 14:05:10;;;;;;;13.10;11.25;;;;;;;;;;5021636;28;20415;-61
2023/11/02 14:07:38;;;;;;;16.88;14.25;;;;;;;;;;5020442;28;20764;-61
2023/11/02 14:10:06;;;;;;;17.53;15.83;;;;;;;;;;5020455;28;20909;-60
2023/11/02 14:12:33;;;;;;;19.87;18.10;;;;;;;;;;5022564;28;20407;-59
2023/11/02 14:15:00;;;;;;;20.23;18.33;;;;;;;;;;5020705;28;20408;-59
2023/11/02 14:17:27;;;;;;;24.58;22.52;;;;;;;;;;5019840;28;20424;-61
2023/11/02 14:19:55;;;;;;;55.28;51.28;;;;;;;;;;5021895;28;20430;-61
2023/11/02 14:22:22;;;;;;;20.10;18.10;;;;;;;;;;5019937;28;20831;-62
2023/11/02 14:24:52;;;;;;;24.27;22.00;;;;;;;;;;5020131;28;20417;-60
2023/11/02 14:27:22;;;;;;;31.08;28.33;;;;;;;;;;5022161;28;20410;-59
2023/11/02 14:29:50;;;;;;;30.98;28.58;;;;;;;;;;5020663;28;20436;-59
2023/11/02 14:32:17;;;;;;;135.40;126.45;;;;;;;;;;5010451;28;20505;-63
2023/11/02 14:34:44;;;;;;;53.65;49.75;;;;;;;;;;5013912;28;20413;-63
2023/11/02 14:37:13;;;;;;;63.95;59.53;;;;;;;;;;5017234;28;20436;-62
2023/11/02 14:39:41;;;;;;;8.73;2.73;;;;;;;;;;5018325;28;20476;-65
2023/11/02 14:42:09;;;;;;;7.60;2.80;;;;;;;;;;5021755;28;20415;-63
2023/11/02 14:44:36;;;;;;;6.05;2.67;;;;;;;;;;5023337;28;20493;-63
2023/11/02 14:47:03;;;;;;;6.47;1.98;;;;;;;;;;5028566;28;20410;-63
2023/11/02 14:49:30;;;;;;;5.88;2.58;;;;;;;;;;5024335;28;20416;-62
2023/11/02 14:51:58;;;;;;;9.03;2.87;;;;;;;;;;5029858;28;20789;-63
2023/11/02 14:54:26;;;;;;;11.02;3.78;;;;;;;;;;5018518;28;20415;-62